sensor_id;sensor_type;location;lat;lon;timestamp;pressure;altitude;pressure_sealevel;temperature
30001;BMP280;16845;48.670;9.000;2023-06-10T00:02:26;95159.66;;;17.51
30001;BMP280;16845;48.670;9.000;2023-06-10T00:04:54;95160.91;;;17.44
30001;BMP280;16845;48.670;9.000;2023-06-10T00:07:21;95161.91;;;17.42
30001;BMP280;16845;48.670;9.000;2023-06-10T00:09:47;95154.94;;;17.31
30001;BMP280;16845;48.670;9.000;2023-06-10T00:12:14;95159.63;;;17.23
30001;BMP280;16845;48.670;9.000;2023-06-10T00:14:40;95169.13;;;17.20
30001;BMP280;16845;48.670;9.000;2023-06-10T00:17:07;95171.16;;;17.15
30001;BMP280;16845;48.670;9.000;2023-06-10T00:19:33;95171.06;;;17.16
30001;BMP280;16845;48.670;9.000;2023-06-10T00:22:01;95165.81;;;17.19
30001;BMP280;16845;48.670;9.000;2023-06-10T00:24:28;95167.44;;;17.20
30001;BMP280;16845;48.670;9.000;2023-06-10T00:26:55;95162.56;;;17.17
30001;BMP280;16845;48.670;9.000;2023-06-10T00:29:21;95165.25;;;17.14
30001;BMP280;16845;48.670;9.000;2023-06-10T00:31:48;95161.47;;;17.07
30001;BMP280;16845;48.670;9.000;2023-06-10T00:34:14;95161.00;;;17.01
30001;BMP280;16845;48.670;9.000;2023-06-10T00:36:41;95155.66;;;16.91
30001;BMP280;16845;48.670;9.000;2023-06-10T00:39:09;95159.84;;;16.92
30001;BMP280;16845;48.670;9.000;2023-06-10T00:41:35;95157.56;;;16.88
30001;BMP280;16845;48.670;9.000;2023-06-10T00:44:02;95164.44;;;16.86
30001;BMP280;16845;48.670;9.000;2023-06-10T00:46:29;95166.63;;;16.78
30001;BMP280;16845;48.670;9.000;2023-06-10T00:48:56;95156.56;;;16.76
30001;BMP280;16845;48.670;9.000;2023-06-10T00:51:22;95164.53;;;16.84
30001;BMP280;16845;48.670;9.000;2023-06-10T00:53:49;95159.28;;;16.73
30001;BMP280;16845;48.670;9.000;2023-06-10T00:56:17;95165.44;;;16.69
30001;BMP280;16845;48.670;9.000;2023-06-10T00:58:44;95163.31;;;16.62
30001;BMP280;16845;48.670;9.000;2023-06-10T01:01:11;95159.81;;;16.64
30001;BMP280;16845;48.670;9.000;2023-06-10T01:03:38;95160.91;;;16.61
30001;BMP280;16845;48.670;9.000;2023-06-10T01:06:11;95161.69;;;16.61
30001;BMP280;16845;48.670;9.000;2023-06-10T01:08:46;95156.88;;;16.57
30001;BMP280;16845;48.670;9.000;2023-06-10T01:11:22;95166.75;;;16.47
30001;BMP280;16845;48.670;9.000;2023-06-10T01:13:50;95166.81;;;16.46
30001;BMP280;16845;48.670;9.000;2023-06-10T01:16:18;95154.91;;;16.48
30001;BMP280;16845;48.670;9.000;2023-06-10T01:18:45;95160.31;;;16.42
30001;BMP280;16845;48.670;9.000;2023-06-10T01:21:19;95167.34;;;16.37
30001;BMP280;16845;48.670;9.000;2023-06-10T01:23:46;95164.72;;;16.38
30001;BMP280;16845;48.670;9.000;2023-06-10T01:26:13;95154.69;;;16.37
30001;BMP280;16845;48.670;9.000;2023-06-10T01:28:44;95154.59;;;16.38
30001;BMP280;16845;48.670;9.000;2023-06-10T01:31:17;95161.28;;;16.39
30001;BMP280;16845;48.670;9.000;2023-06-10T01:33:47;95159.16;;;16.32
30001;BMP280;16845;48.670;9.000;2023-06-10T01:36:17;95156.88;;;16.27
30001;BMP280;16845;48.670;9.000;2023-06-10T01:38:45;95156.88;;;16.27
30001;BMP280;16845;48.670;9.000;2023-06-10T01:41:13;95158.50;;;16.28
30001;BMP280;16845;48.670;9.000;2023-06-10T01:43:42;95163.81;;;16.24
30001;BMP280;16845;48.670;9.000;2023-06-10T01:46:09;95161.47;;;16.21
30001;BMP280;16845;48.670;9.000;2023-06-10T01:48:37;95163.28;;;16.19
30001;BMP280;16845;48.670;9.000;2023-06-10T01:51:03;95166.19;;;16.13
30001;BMP280;16845;48.670;9.000;2023-06-10T01:53:31;95170.47;;;16.11
30001;BMP280;16845;48.670;9.000;2023-06-10T01:55:58;95173.19;;;16.08
30001;BMP280;16845;48.670;9.000;2023-06-10T01:58:24;95176.06;;;16.02
30001;BMP280;16845;48.670;9.000;2023-06-10T02:00:51;95176.56;;;15.93
30001;BMP280;16845;48.670;9.000;2023-06-10T02:03:17;95180.06;;;15.90
30001;BMP280;16845;48.670;9.000;2023-06-10T02:05:44;95177.25;;;15.81
30001;BMP280;16845;48.670;9.000;2023-06-10T02:08:10;95179.53;;;15.70
30001;BMP280;16845;48.670;9.000;2023-06-10T02:10:38;95180.25;;;15.72
30001;BMP280;16845;48.670;9.000;2023-06-10T02:13:05;95178.47;;;15.74
30001;BMP280;16845;48.670;9.000;2023-06-10T02:15:31;95184.91;;;15.64
30001;BMP280;16845;48.670;9.000;2023-06-10T02:17:59;95181.56;;;15.63
30001;BMP280;16845;48.670;9.000;2023-06-10T02:20:25;95175.38;;;15.53
30001;BMP280;16845;48.670;9.000;2023-06-10T02:22:52;95184.81;;;15.50
30001;BMP280;16845;48.670;9.000;2023-06-10T02:25:19;95194.03;;;15.51
30001;BMP280;16845;48.670;9.000;2023-06-10T02:27:47;95197.47;;;15.50
30001;BMP280;16845;48.670;9.000;2023-06-10T02:30:13;95196.75;;;15.48
30001;BMP280;16845;48.670;9.000;2023-06-10T02:32:40;95196.75;;;15.48
30001;BMP280;16845;48.670;9.000;2023-06-10T02:35:07;95192.16;;;15.39
30001;BMP280;16845;48.670;9.000;2023-06-10T02:37:34;95196.31;;;15.40
30001;BMP280;16845;48.670;9.000;2023-06-10T02:40:00;95203.41;;;15.33
30001;BMP280;16845;48.670;9.000;2023-06-10T02:42:27;95200.94;;;15.32
30001;BMP280;16845;48.670;9.000;2023-06-10T02:44:55;95203.78;;;15.26
30001;BMP280;16845;48.670;9.000;2023-06-10T02:47:21;95205.75;;;15.36
30001;BMP280;16845;48.670;9.000;2023-06-10T02:49:48;95211.81;;;15.34
30001;BMP280;16845;48.670;9.000;2023-06-10T02:52:14;95208.91;;;15.24
30001;BMP280;16845;48.670;9.000;2023-06-10T02:54:41;95211.34;;;15.26
30001;BMP280;16845;48.670;9.000;2023-06-10T02:57:08;95203.94;;;15.23
30001;BMP280;16845;48.670;9.000;2023-06-10T02:59:34;95204.84;;;15.22
30001;BMP280;16845;48.670;9.000;2023-06-10T03:02:02;95205.06;;;15.17
30001;BMP280;16845;48.670;9.000;2023-06-10T03:04:29;95204.88;;;15.05
30001;BMP280;16845;48.670;9.000;2023-06-10T03:06:56;95206.00;;;14.99
30001;BMP280;16845;48.670;9.000;2023-06-10T03:09:22;95212.63;;;15.02
30001;BMP280;16845;48.670;9.000;2023-06-10T03:11:49;95208.06;;;15.08
30001;BMP280;16845;48.670;9.000;2023-06-10T03:14:15;95215.31;;;14.99
30001;BMP280;16845;48.670;9.000;2023-06-10T03:16:42;95219.00;;;14.92
30001;BMP280;16845;48.670;9.000;2023-06-10T03:19:09;95214.47;;;14.98
30001;BMP280;16845;48.670;9.000;2023-06-10T03:21:36;95215.31;;;14.99
30001;BMP280;16845;48.670;9.000;2023-06-10T03:24:03;95216.59;;;15.06
30001;BMP280;16845;48.670;9.000;2023-06-10T03:26:30;95220.25;;;15.00
30001;BMP280;16845;48.670;9.000;2023-06-10T03:28:57;95218.56;;;15.01
30001;BMP280;16845;48.670;9.000;2023-06-10T03:31:23;95222.44;;;14.91
30001;BMP280;16845;48.670;9.000;2023-06-10T03:33:50;95218.69;;;14.98
30001;BMP280;16845;48.670;9.000;2023-06-10T03:36:18;95223.63;;;14.84
30001;BMP280;16845;48.670;9.000;2023-06-10T03:38:44;95223.06;;;14.79
30001;BMP280;16845;48.670;9.000;2023-06-10T03:41:11;95226.84;;;14.70
30001;BMP280;16845;48.670;9.000;2023-06-10T03:43:37;95228.09;;;14.62
30001;BMP280;16845;48.670;9.000;2023-06-10T03:46:04;95235.81;;;14.59
30001;BMP280;16845;48.670;9.000;2023-06-10T03:48:30;95232.72;;;14.54
30001;BMP280;16845;48.670;9.000;2023-06-10T03:50:57;95246.00;;;14.57
30001;BMP280;16845;48.670;9.000;2023-06-10T03:53:25;95239.09;;;14.61
30001;BMP280;16845;48.670;9.000;2023-06-10T03:55:51;95243.56;;;14.56
30001;BMP280;16845;48.670;9.000;2023-06-10T03:58:18;95242.81;;;14.54
30001;BMP280;16845;48.670;9.000;2023-06-10T04:00:44;95249.63;;;14.52
30001;BMP280;16845;48.670;9.000;2023-06-10T04:03:11;95247.19;;;14.50
30001;BMP280;16845;48.670;9.000;2023-06-10T04:05:38;95242.56;;;14.58
30001;BMP280;16845;48.670;9.000;2023-06-10T04:08:04;95242.06;;;14.69
30001;BMP280;16845;48.670;9.000;2023-06-10T04:10:32;95244.78;;;14.81
30001;BMP280;16845;48.670;9.000;2023-06-10T04:12:59;95246.81;;;14.92
30001;BMP280;16845;48.670;9.000;2023-06-10T04:15:25;95243.09;;;14.99
30001;BMP280;16845;48.670;9.000;2023-06-10T04:17:52;95247.19;;;15.17
30001;BMP280;16845;48.670;9.000;2023-06-10T04:20:19;95245.34;;;15.20
30001;BMP280;16845;48.670;9.000;2023-06-10T04:22:45;95249.72;;;15.34
30001;BMP280;16845;48.670;9.000;2023-06-10T04:25:12;95249.63;;;15.35
30001;BMP280;16845;48.670;9.000;2023-06-10T04:27:39;95250.78;;;15.45
30001;BMP280;16845;48.670;9.000;2023-06-10T04:30:07;95252.19;;;15.51
30001;BMP280;16845;48.670;9.000;2023-06-10T04:32:33;95249.59;;;15.52
30001;BMP280;16845;48.670;9.000;2023-06-10T04:35:00;95249.91;;;15.62
30001;BMP280;16845;48.670;9.000;2023-06-10T04:37:26;95247.94;;;15.67
30001;BMP280;16845;48.670;9.000;2023-06-10T04:39:53;95251.50;;;15.80
30001;BMP280;16845;48.670;9.000;2023-06-10T04:42:19;95249.34;;;15.88
30001;BMP280;16845;48.670;9.000;2023-06-10T04:44:47;95246.41;;;15.95
30001;BMP280;16845;48.670;9.000;2023-06-10T04:47:14;95255.06;;;16.07
30001;BMP280;16845;48.670;9.000;2023-06-10T04:49:40;95255.31;;;16.18
30001;BMP280;16845;48.670;9.000;2023-06-10T04:52:07;95259.44;;;16.34
30001;BMP280;16845;48.670;9.000;2023-06-10T04:54:34;95256.19;;;16.48
30001;BMP280;16845;48.670;9.000;2023-06-10T04:57:00;95245.38;;;16.60
30001;BMP280;16845;48.670;9.000;2023-06-10T04:59:26;95248.13;;;16.70
30001;BMP280;16845;48.670;9.000;2023-06-10T05:01:55;95249.69;;;16.87
30001;BMP280;16845;48.670;9.000;2023-06-10T05:04:21;95250.44;;;17.03
30001;BMP280;16845;48.670;9.000;2023-06-10T05:06:48;95245.81;;;17.09
30001;BMP280;16845;48.670;9.000;2023-06-10T05:09:14;95243.84;;;17.28
30001;BMP280;16845;48.670;9.000;2023-06-10T05:11:41;95247.31;;;17.41
30001;BMP280;16845;48.670;9.000;2023-06-10T05:14:07;95243.50;;;17.48
30001;BMP280;16845;48.670;9.000;2023-06-10T05:16:34;95250.94;;;17.65
30001;BMP280;16845;48.670;9.000;2023-06-10T05:19:02;95250.22;;;17.63
30001;BMP280;16845;48.670;9.000;2023-06-10T05:21:32;95245.78;;;17.93
30001;BMP280;16845;48.670;9.000;2023-06-10T05:23:59;95254.97;;;17.96
30001;BMP280;16845;48.670;9.000;2023-06-10T05:26:25;95251.94;;;18.03
30001;BMP280;16845;48.670;9.000;2023-06-10T05:28:52;95254.84;;;18.11
30001;BMP280;16845;48.670;9.000;2023-06-10T05:31:18;95259.53;;;18.17
30001;BMP280;16845;48.670;9.000;2023-06-10T05:33:45;95261.41;;;18.28
30001;BMP280;16845;48.670;9.000;2023-06-10T05:36:13;95265.66;;;18.41
30001;BMP280;16845;48.670;9.000;2023-06-10T05:38:39;95257.28;;;18.66
30001;BMP280;16845;48.670;9.000;2023-06-10T05:41:06;95264.41;;;18.73
30001;BMP280;16845;48.670;9.000;2023-06-10T05:43:32;95260.97;;;18.74
30001;BMP280;16845;48.670;9.000;2023-06-10T05:45:59;95263.44;;;18.88
30001;BMP280;16845;48.670;9.000;2023-06-10T05:48:25;95255.38;;;19.20
30001;BMP280;16845;48.670;9.000;2023-06-10T05:50:52;95261.28;;;19.46
30001;BMP280;16845;48.670;9.000;2023-06-10T05:53:20;95255.88;;;19.38
30001;BMP280;16845;48.670;9.000;2023-06-10T05:55:46;95263.28;;;19.41
30001;BMP280;16845;48.670;9.000;2023-06-10T05:58:13;95263.59;;;19.61
30001;BMP280;16845;48.670;9.000;2023-06-10T06:00:40;95263.56;;;19.74
30001;BMP280;16845;48.670;9.000;2023-06-10T06:03:07;95258.56;;;19.85
30001;BMP280;16845;48.670;9.000;2023-06-10T06:05:34;95257.75;;;19.84
30001;BMP280;16845;48.670;9.000;2023-06-10T06:08:01;95251.50;;;20.01
30001;BMP280;16845;48.670;9.000;2023-06-10T06:10:29;95257.63;;;20.11
30001;BMP280;16845;48.670;9.000;2023-06-10T06:12:56;95263.09;;;20.41
30001;BMP280;16845;48.670;9.000;2023-06-10T06:15:22;95256.06;;;20.68
30001;BMP280;16845;48.670;9.000;2023-06-10T06:17:49;95259.91;;;20.73
30001;BMP280;16845;48.670;9.000;2023-06-10T06:20:16;95254.72;;;21.20
30001;BMP280;16845;48.670;9.000;2023-06-10T06:22:45;95258.75;;;21.01
30001;BMP280;16845;48.670;9.000;2023-06-10T06:25:12;95251.84;;;21.25
30001;BMP280;16845;48.670;9.000;2023-06-10T06:27:41;95251.94;;;21.23
30001;BMP280;16845;48.670;9.000;2023-06-10T06:30:08;95253.91;;;21.20
30001;BMP280;16845;48.670;9.000;2023-06-10T06:32:35;95250.34;;;21.33
30001;BMP280;16845;48.670;9.000;2023-06-10T06:35:01;95246.53;;;21.39
30001;BMP280;16845;48.670;9.000;2023-06-10T06:37:28;95253.69;;;21.34
30001;BMP280;16845;48.670;9.000;2023-06-10T06:39:54;95252.31;;;21.41
30001;BMP280;16845;48.670;9.000;2023-06-10T06:42:21;95261.84;;;21.61
30001;BMP280;16845;48.670;9.000;2023-06-10T06:44:49;95262.34;;;21.76
30001;BMP280;16845;48.670;9.000;2023-06-10T06:47:15;95261.03;;;22.15
30001;BMP280;16845;48.670;9.000;2023-06-10T06:49:42;95275.66;;;22.24
30001;BMP280;16845;48.670;9.000;2023-06-10T06:52:09;95267.03;;;22.47
30001;BMP280;16845;48.670;9.000;2023-06-10T06:54:35;95271.28;;;22.57
30001;BMP280;16845;48.670;9.000;2023-06-10T06:57:02;95260.81;;;22.71
30001;BMP280;16845;48.670;9.000;2023-06-10T06:59:28;95270.78;;;22.74
30001;BMP280;16845;48.670;9.000;2023-06-10T07:01:56;95272.63;;;22.83
30001;BMP280;16845;48.670;9.000;2023-06-10T07:04:23;95270.16;;;23.13
30001;BMP280;16845;48.670;9.000;2023-06-10T07:06:50;95267.28;;;23.27
30001;BMP280;16845;48.670;9.000;2023-06-10T07:09:16;95265.28;;;23.51
30001;BMP280;16845;48.670;9.000;2023-06-10T07:11:43;95271.72;;;23.96
30001;BMP280;16845;48.670;9.000;2023-06-10T07:14:09;95268.44;;;24.24
30001;BMP280;16845;48.670;9.000;2023-06-10T07:16:36;95263.69;;;24.10
30001;BMP280;16845;48.670;9.000;2023-06-10T07:19:04;95264.97;;;24.44
30001;BMP280;16845;48.670;9.000;2023-06-10T07:21:31;95259.25;;;24.70
30001;BMP280;16845;48.670;9.000;2023-06-10T07:23:58;95263.09;;;24.46
30001;BMP280;16845;48.670;9.000;2023-06-10T07:26:25;95266.13;;;24.89
30001;BMP280;16845;48.670;9.000;2023-06-10T07:28:51;95259.53;;;24.28
30001;BMP280;16845;48.670;9.000;2023-06-10T07:31:18;95265.16;;;24.99
30001;BMP280;16845;48.670;9.000;2023-06-10T07:33:44;95257.16;;;25.50
30001;BMP280;16845;48.670;9.000;2023-06-10T07:36:14;95256.81;;;25.72
30001;BMP280;16845;48.670;9.000;2023-06-10T07:38:40;95254.09;;;25.83
30001;BMP280;16845;48.670;9.000;2023-06-10T07:41:07;95252.69;;;25.61
30001;BMP280;16845;48.670;9.000;2023-06-10T07:43:33;95251.66;;;25.26
30001;BMP280;16845;48.670;9.000;2023-06-10T07:46:00;95267.59;;;25.85
30001;BMP280;16845;48.670;9.000;2023-06-10T07:48:26;95251.97;;;26.05
30001;BMP280;16845;48.670;9.000;2023-06-10T07:50:53;95254.31;;;26.26
30001;BMP280;16845;48.670;9.000;2023-06-10T07:53:21;95251.97;;;26.77
30001;BMP280;16845;48.670;9.000;2023-06-10T07:55:47;95245.97;;;27.20
30001;BMP280;16845;48.670;9.000;2023-06-10T07:58:14;95253.97;;;27.60
30001;BMP280;16845;48.670;9.000;2023-06-10T08:00:40;95252.28;;;27.26
30001;BMP280;16845;48.670;9.000;2023-06-10T08:03:07;95250.84;;;28.08
30001;BMP280;16845;48.670;9.000;2023-06-10T08:05:34;95252.13;;;28.04
30001;BMP280;16845;48.670;9.000;2023-06-10T08:08:00;95250.63;;;27.68
30001;BMP280;16845;48.670;9.000;2023-06-10T08:10:31;95253.25;;;29.00
30001;BMP280;16845;48.670;9.000;2023-06-10T08:12:57;95252.75;;;27.72
30001;BMP280;16845;48.670;9.000;2023-06-10T08:15:24;95253.53;;;27.22
30001;BMP280;16845;48.670;9.000;2023-06-10T08:17:50;95252.00;;;27.54
30001;BMP280;16845;48.670;9.000;2023-06-10T08:20:17;95251.56;;;27.84
30001;BMP280;16845;48.670;9.000;2023-06-10T08:22:44;95249.25;;;27.73
30001;BMP280;16845;48.670;9.000;2023-06-10T08:25:10;95248.47;;;28.14
30001;BMP280;16845;48.670;9.000;2023-06-10T08:27:38;95242.63;;;28.04
30001;BMP280;16845;48.670;9.000;2023-06-10T08:30:06;95252.06;;;27.62
30001;BMP280;16845;48.670;9.000;2023-06-10T08:32:33;95263.03;;;27.90
30001;BMP280;16845;48.670;9.000;2023-06-10T08:35:00;95250.84;;;29.15
30001;BMP280;16845;48.670;9.000;2023-06-10T08:37:26;95253.53;;;28.81
30001;BMP280;16845;48.670;9.000;2023-06-10T08:39:53;95258.16;;;28.20
30001;BMP280;16845;48.670;9.000;2023-06-10T08:42:23;95263.44;;;27.77
30001;BMP280;16845;48.670;9.000;2023-06-10T08:44:54;95258.75;;;28.40
30001;BMP280;16845;48.670;9.000;2023-06-10T08:47:22;95249.88;;;29.56
30001;BMP280;16845;48.670;9.000;2023-06-10T08:49:49;95252.09;;;30.37
30001;BMP280;16845;48.670;9.000;2023-06-10T08:52:18;95250.84;;;29.70
30001;BMP280;16845;48.670;9.000;2023-06-10T08:54:49;95248.72;;;29.26
30001;BMP280;16845;48.670;9.000;2023-06-10T08:57:18;95251.41;;;30.04
30001;BMP280;16845;48.670;9.000;2023-06-10T08:59:44;95248.09;;;29.32
30001;BMP280;16845;48.670;9.000;2023-06-10T09:02:13;95248.34;;;28.81
30001;BMP280;16845;48.670;9.000;2023-06-10T09:04:42;95254.69;;;28.37
30001;BMP280;16845;48.670;9.000;2023-06-10T09:07:09;95246.31;;;29.41
30001;BMP280;16845;48.670;9.000;2023-06-10T09:09:36;95244.66;;;30.34
30001;BMP280;16845;48.670;9.000;2023-06-10T09:12:03;95233.31;;;30.73
30001;BMP280;16845;48.670;9.000;2023-06-10T09:14:30;95244.78;;;30.10
30001;BMP280;16845;48.670;9.000;2023-06-10T09:16:57;95257.97;;;30.23
30001;BMP280;16845;48.670;9.000;2023-06-10T09:19:25;95252.34;;;30.50
30001;BMP280;16845;48.670;9.000;2023-06-10T09:21:51;95250.38;;;30.60
30001;BMP280;16845;48.670;9.000;2023-06-10T09:24:18;95249.19;;;30.70
30001;BMP280;16845;48.670;9.000;2023-06-10T09:26:45;95253.69;;;30.38
30001;BMP280;16845;48.670;9.000;2023-06-10T09:29:11;95254.19;;;29.87
30001;BMP280;16845;48.670;9.000;2023-06-10T09:31:39;95245.78;;;30.39
30001;BMP280;16845;48.670;9.000;2023-06-10T09:34:07;95235.69;;;32.66
30001;BMP280;16845;48.670;9.000;2023-06-10T09:36:37;95237.09;;;32.33
30001;BMP280;16845;48.670;9.000;2023-06-10T09:39:04;95232.69;;;32.83
30001;BMP280;16845;48.670;9.000;2023-06-10T09:41:32;95241.38;;;31.83
30001;BMP280;16845;48.670;9.000;2023-06-10T09:43:58;95242.28;;;31.53
30001;BMP280;16845;48.670;9.000;2023-06-10T09:46:30;95242.50;;;30.76
30001;BMP280;16845;48.670;9.000;2023-06-10T09:48:57;95241.09;;;30.73
30001;BMP280;16845;48.670;9.000;2023-06-10T09:51:24;95246.75;;;31.22
30001;BMP280;16845;48.670;9.000;2023-06-10T09:53:52;95230.56;;;31.20
30001;BMP280;16845;48.670;9.000;2023-06-10T09:56:19;95230.88;;;32.48
30001;BMP280;16845;48.670;9.000;2023-06-10T09:58:45;95233.06;;;31.65
30001;BMP280;16845;48.670;9.000;2023-06-10T10:01:13;95238.13;;;31.29
30001;BMP280;16845;48.670;9.000;2023-06-10T10:03:44;95237.03;;;30.93
30001;BMP280;16845;48.670;9.000;2023-06-10T10:06:11;95229.53;;;31.29
30001;BMP280;16845;48.670;9.000;2023-06-10T10:08:38;95239.03;;;29.52
30001;BMP280;16845;48.670;9.000;2023-06-10T10:11:06;95228.75;;;31.43
30001;BMP280;16845;48.670;9.000;2023-06-10T10:13:33;95221.94;;;32.08
30001;BMP280;16845;48.670;9.000;2023-06-10T10:16:04;95232.97;;;31.81
30001;BMP280;16845;48.670;9.000;2023-06-10T10:18:31;95221.91;;;34.04
30001;BMP280;16845;48.670;9.000;2023-06-10T10:21:04;95216.69;;;33.49
30001;BMP280;16845;48.670;9.000;2023-06-10T10:23:34;95229.69;;;34.38
30001;BMP280;16845;48.670;9.000;2023-06-10T10:26:07;95218.88;;;34.75
30001;BMP280;16845;48.670;9.000;2023-06-10T10:28:41;95222.94;;;35.88
30001;BMP280;16845;48.670;9.000;2023-06-10T10:31:12;95221.09;;;35.04
30001;BMP280;16845;48.670;9.000;2023-06-10T10:33:54;95220.91;;;34.86
30001;BMP280;16845;48.670;9.000;2023-06-10T10:36:22;95214.69;;;33.72
30001;BMP280;16845;48.670;9.000;2023-06-10T10:38:49;95220.00;;;34.19
30001;BMP280;16845;48.670;9.000;2023-06-10T10:41:20;95223.38;;;36.61
30001;BMP280;16845;48.670;9.000;2023-06-10T10:43:47;95213.97;;;35.32
30001;BMP280;16845;48.670;9.000;2023-06-10T10:46:16;95213.91;;;34.40
30001;BMP280;16845;48.670;9.000;2023-06-10T10:48:44;95212.44;;;34.84
30001;BMP280;16845;48.670;9.000;2023-06-10T10:51:10;95212.34;;;35.44
30001;BMP280;16845;48.670;9.000;2023-06-10T10:53:37;95210.25;;;34.81
30001;BMP280;16845;48.670;9.000;2023-06-10T10:56:05;95207.69;;;32.18
30001;BMP280;16845;48.670;9.000;2023-06-10T10:58:33;95212.28;;;29.99
30001;BMP280;16845;48.670;9.000;2023-06-10T11:01:10;95227.25;;;30.20
30001;BMP280;16845;48.670;9.000;2023-06-10T11:03:42;95200.56;;;31.77
30001;BMP280;16845;48.670;9.000;2023-06-10T11:06:12;95201.72;;;29.70
30001;BMP280;16845;48.670;9.000;2023-06-10T11:08:46;95207.69;;;28.67
30001;BMP280;16845;48.670;9.000;2023-06-10T11:11:21;95217.16;;;29.94
30001;BMP280;16845;48.670;9.000;2023-06-10T11:14:08;95218.66;;;31.62
30001;BMP280;16845;48.670;9.000;2023-06-10T11:16:39;95203.97;;;32.35
30001;BMP280;16845;48.670;9.000;2023-06-10T11:19:06;95193.41;;;33.35
30001;BMP280;16845;48.670;9.000;2023-06-10T11:21:45;95197.25;;;36.55
30001;BMP280;16845;48.670;9.000;2023-06-10T11:24:23;95196.25;;;36.56
30001;BMP280;16845;48.670;9.000;2023-06-10T11:26:50;95185.75;;;36.25
30001;BMP280;16845;48.670;9.000;2023-06-10T11:29:18;95195.22;;;36.06
30001;BMP280;16845;48.670;9.000;2023-06-10T11:31:49;95202.50;;;35.52
30001;BMP280;16845;48.670;9.000;2023-06-10T11:34:22;95206.03;;;36.80
30001;BMP280;16845;48.670;9.000;2023-06-10T11:36:49;95198.22;;;36.03
30001;BMP280;16845;48.670;9.000;2023-06-10T11:39:17;95200.34;;;36.39
30001;BMP280;16845;48.670;9.000;2023-06-10T11:41:45;95190.28;;;35.72
30001;BMP280;16845;48.670;9.000;2023-06-10T11:44:13;95185.31;;;34.12
30001;BMP280;16845;48.670;9.000;2023-06-10T11:46:47;95203.28;;;30.26
30001;BMP280;16845;48.670;9.000;2023-06-10T11:49:14;95196.16;;;31.63
30001;BMP280;16845;48.670;9.000;2023-06-10T11:51:41;95195.88;;;34.04
30001;BMP280;16845;48.670;9.000;2023-06-10T11:54:08;95172.94;;;34.74
30001;BMP280;16845;48.670;9.000;2023-06-10T11:56:35;95170.38;;;34.87
30001;BMP280;16845;48.670;9.000;2023-06-10T11:59:02;95188.81;;;31.66
30001;BMP280;16845;48.670;9.000;2023-06-10T12:01:28;95178.75;;;30.97
30001;BMP280;16845;48.670;9.000;2023-06-10T12:04:00;95179.28;;;30.40
30001;BMP280;16845;48.670;9.000;2023-06-10T12:06:37;95188.31;;;31.71
30001;BMP280;16845;48.670;9.000;2023-06-10T12:09:04;95170.44;;;33.17
30001;BMP280;16845;48.670;9.000;2023-06-10T12:11:50;95165.47;;;34.11
30001;BMP280;16845;48.670;9.000;2023-06-10T12:14:54;95171.13;;;31.99
30001;BMP280;16845;48.670;9.000;2023-06-10T12:17:24;95185.16;;;30.34
30001;BMP280;16845;48.670;9.000;2023-06-10T12:20:04;95169.88;;;32.09
30001;BMP280;16845;48.670;9.000;2023-06-10T12:22:36;95183.22;;;31.92
30001;BMP280;16845;48.670;9.000;2023-06-10T12:25:04;95184.47;;;32.60
30001;BMP280;16845;48.670;9.000;2023-06-10T12:27:31;95181.50;;;34.55
30001;BMP280;16845;48.670;9.000;2023-06-10T12:29:58;95158.75;;;36.37
30001;BMP280;16845;48.670;9.000;2023-06-10T12:32:35;95179.25;;;35.31
30001;BMP280;16845;48.670;9.000;2023-06-10T12:35:04;95179.94;;;36.67
30001;BMP280;16845;48.670;9.000;2023-06-10T12:37:32;95179.97;;;34.80
30001;BMP280;16845;48.670;9.000;2023-06-10T12:39:59;95181.16;;;34.71
30001;BMP280;16845;48.670;9.000;2023-06-10T12:42:26;95168.47;;;37.61
30001;BMP280;16845;48.670;9.000;2023-06-10T12:44:53;95155.06;;;36.07
30001;BMP280;16845;48.670;9.000;2023-06-10T12:47:20;95162.28;;;32.99
30001;BMP280;16845;48.670;9.000;2023-06-10T12:49:55;95172.91;;;30.20
30001;BMP280;16845;48.670;9.000;2023-06-10T12:52:23;95168.66;;;29.18
30001;BMP280;16845;48.670;9.000;2023-06-10T12:54:49;95180.56;;;28.39
30001;BMP280;16845;48.670;9.000;2023-06-10T12:57:16;95177.72;;;27.75
30001;BMP280;16845;48.670;9.000;2023-06-10T12:59:42;95177.28;;;27.54
30001;BMP280;16845;48.670;9.000;2023-06-10T13:02:09;95187.25;;;27.83
30001;BMP280;16845;48.670;9.000;2023-06-10T13:04:35;95180.41;;;31.13
30001;BMP280;16845;48.670;9.000;2023-06-10T13:07:02;95173.00;;;33.93
30001;BMP280;16845;48.670;9.000;2023-06-10T13:09:30;95172.44;;;34.51
30001;BMP280;16845;48.670;9.000;2023-06-10T13:11:56;95157.34;;;35.65
30001;BMP280;16845;48.670;9.000;2023-06-10T13:14:23;95166.28;;;36.08
30001;BMP280;16845;48.670;9.000;2023-06-10T13:16:49;95153.63;;;37.90
30001;BMP280;16845;48.670;9.000;2023-06-10T13:19:16;95135.88;;;37.08
30001;BMP280;16845;48.670;9.000;2023-06-10T13:21:42;95144.13;;;35.40
30001;BMP280;16845;48.670;9.000;2023-06-10T13:24:09;95142.50;;;32.77
30001;BMP280;16845;48.670;9.000;2023-06-10T13:26:37;95145.69;;;31.22
30001;BMP280;16845;48.670;9.000;2023-06-10T13:29:03;95175.84;;;30.78
30001;BMP280;16845;48.670;9.000;2023-06-10T13:31:30;95150.53;;;31.54
30001;BMP280;16845;48.670;9.000;2023-06-10T13:33:57;95147.91;;;30.12
30001;BMP280;16845;48.670;9.000;2023-06-10T13:36:23;95154.88;;;30.65
30001;BMP280;16845;48.670;9.000;2023-06-10T13:38:50;95146.06;;;28.88
30001;BMP280;16845;48.670;9.000;2023-06-10T13:41:16;95150.78;;;28.11
30001;BMP280;16845;48.670;9.000;2023-06-10T13:43:44;95152.66;;;28.35
30001;BMP280;16845;48.670;9.000;2023-06-10T13:46:11;95146.69;;;32.08
30001;BMP280;16845;48.670;9.000;2023-06-10T13:48:37;95143.91;;;35.03
30001;BMP280;16845;48.670;9.000;2023-06-10T13:51:04;95122.88;;;37.26
30001;BMP280;16845;48.670;9.000;2023-06-10T13:53:30;95136.97;;;39.27
30001;BMP280;16845;48.670;9.000;2023-06-10T13:55:57;95131.00;;;38.50
30001;BMP280;16845;48.670;9.000;2023-06-10T13:58:23;95112.13;;;39.64
30001;BMP280;16845;48.670;9.000;2023-06-10T14:00:51;95113.72;;;39.65
30001;BMP280;16845;48.670;9.000;2023-06-10T14:03:18;95111.91;;;38.61
30001;BMP280;16845;48.670;9.000;2023-06-10T14:05:44;95114.25;;;35.49
30001;BMP280;16845;48.670;9.000;2023-06-10T14:08:11;95112.63;;;35.55
30001;BMP280;16845;48.670;9.000;2023-06-10T14:10:37;95122.81;;;33.10
30001;BMP280;16845;48.670;9.000;2023-06-10T14:13:04;95118.31;;;31.05